Talmage, CA (95481)

8:41 PM PDT on August 28, 2014 (GMT -0700)
MesoWest Lake Mendocino CA US CDEC | Change Station
CLOSE
Current Station
Personal Weather Station
Location: Ukiah, CA
Elevation: 669 ft
Nearby Weather Stations

Elev 669 ft 39.20 °N, 123.19 °W | Updated 56 minutes ago

Clear
Clear
81 °F
Feels Like 80 °F
N
2
Wind Variable Wind from North
Gusts 0.0 mph

Today
High -- | Low -- °F
--% Chance of Precip.
Yesterday
High -- | Low -- °F
Precip. -- in
6:37 AM 7:49 PM
Waxing Crescent, 11% visible
Pressure 29.91 in
Visibility 10.0 miles
Clouds Clear
Heat Index 80 °F
Dew Point 47 °F
Humidity 30%
Rainfall 0.00 in
Snow Depth Not available.
UV 0 out of 12
Pollen 8.50 out of 12
Air Quality Not available.
Flu Activity Not available.
METAR KUKI 290256Z AUTO 36011G18KT 10SM CLR 28/09 A2992 RMK AO2 SLP126 T02830089 53007

More Conditions Fewer Conditions

Pressure 29.91 in
Visibility 10.0 miles
Clouds Clear
Heat Index 80 °F
Dew Point 47 °F
Humidity 30%
Rainfall 0.00 in
Snow Depth Not available.
UV 0 out of 12
Pollen 8.50 out of 12
Air Quality Not available.
Flu Activity Not available.
METAR KUKI 290256Z AUTO 36011G18KT 10SM CLR 28/09 A2992 RMK AO2 SLP126 T02830089 53007

More Conditions Fewer Conditions

10-Day Weather Forecast

Almanac

Astronomy

Aug. 28, 2014 Rise Set
Actual Time 6:37 AM PDT 7:49 PM PDT
Civil Twilight 6:10 AM PDT 8:16 PM PDT
Nautical Twilight 5:37 AM PDT 8:49 PM PDT
Astronomical Twilight 5:02 AM PDT 9:23 PM PDT
Moon 9:33 AM PDT (8/28) 9:17 PM PDT (8/28)
Length of Visible Light 14h 06m
Length of Day
13h 11m
Tomorrow will be 2m 24s shorter.
Waxing Crescent, 11% of the Moon is Illuminated
Today
Waxing Crescent
Sep 2
First Quarter
Sep 8
Full
Sep 15
Last Quarter
Sep 24
New

Today's Extremes

State Highs State Lows

Community

WunderPhotos

Upload Photos

1,748,182 photos uploaded!

Nearby

Snow Depth

Station Depth Elevation
Rubicon #2 0 in 7500 ft
Hagan's Meadow 0 in 8000 ft
Blue Lakes 0 in 8000 ft
Adin Mountain 0 in 6200 ft
Leavitt Meadows 1 in 7200 ft

Earthquake Activity

City Distance Mag. Time & Date
Napa, California 75 miles 2.6 11:57 AM PDT
2014-08-27
The Geysers, California 28 miles 2.6 7:42 AM PDT
2014-08-27
Napa, California 75 miles 2.5 10:56 AM PDT
2014-08-26
Napa, California 75 miles 3.0 6:45 AM PDT
2014-08-26
Minimum magnitude displayed is 2.5.

Coastal Water Temperatures

Place Temperature
Arena Cove, CA 61.0 °F
North Spit, CA 59.0 °F
Point Reyes, CA 64.9 °F
San Francisco, CA 66.0 °F
Richmond, CA 66.9 °F

Nearby Weather Stations